Pagrindinis puslapis
METAR-TAF:

METAR-TAF

Oro uostai :

Rafha, Saudo Arabija

platuma: 29-37N, ilguma: 043-29E, Aukštis: 449 m

Dabartinis oras

Ataskaita buvo paskelbta 1 valandą ir 8 minutes, ne 04:00 UTC
Vėjas 8 kt iš Pietryčių
Temperatūra 13°C
Drėgmė 41%
Slėgis 1011 hPa
Matomumas 10 km arba daugiau
nėra debesų žemiau 1500 m ir nėra kamuolinių lietaus debesų

METAR: OERF 290400Z 13008KT CAVOK 13/00 Q1011

Laikas: 08:08 (05:08 UTC)

Prognozė

Ataskaita buvo paskelbta 6 valandos ir 8 minutes, ne 23:00 UTC
Prognozė galioja nuo 29 metu 00 UTC su 01 metu 06 UTC
Vėjas 5 kt iš Pietryčių su gūsio iki 15 kt
Matomumas: 7000 m
Tapsmas
nuo 29 metu 10 UTC su 29 metu 12 UTC
Vėjas 13 kt iš Vakarų/Pietvakarių

TAF: OERF 282300Z 2900/0106 14005G15KT 7000 NSC BECMG 2910/2912 24013KT

Orai ataskaitas ir orų prognozės (METAR, TAF).

turimą stotys yra geltonos ir raudonos taškus žemėlapyje.

Perkelti pele per norėdami pamatyti stoties vardą.

Tada spustelėkite, norėdami matyti oro stebėjimo ir prognozės.

Norėdami pakeisti žemėlapį: spustelėkite ant žalios mygtukų su juodo kryžiaus žemyn,; žalią mygtuką su brūkšneliu, jei norite nutolinti; arba žalių rodyklių gretimoms žemėlapius.


METAR-TAF: